Terminal Aerodrome Forecast
Issued by NWS

Home | Current Version | Previous Version | Text Only | Print | Product List | Glossary On
Versions: 1 2 3 4 5 6 7 8 9 10 11 12 13 14 15 16 17 18 19 20 21 22 23 24
000
FTUS45 KGJT 191734
TAFCNY
TAF
KCNY 191734Z 1918/2018 14004KT P6SM SCT100
     FM192000 30005KT P6SM FEW120
     FM200200 34005KT P6SM FEW100 FEW250
     FM201500 14005KT P6SM FEW110 SCT250=

USA.gov is the U.S. government's official web portal to all federal, state and local government web resources and services.